createdAt,value
2014-06-05T00:00:59.715Z,67.64
2014-06-05T00:02:04.700Z,67.88
2014-06-05T00:03:09.390Z,68.29
2014-06-05T00:04:14.065Z,69.14
2014-06-05T00:05:18.753Z,68.5
2014-06-05T00:06:23.740Z,68.75
2014-06-05T00:07:28.414Z,69.68
2014-06-05T00:08:33.103Z,69.86
2014-06-05T00:09:37.777Z,69.09
2014-06-05T00:10:42.466Z,68.74
2014-06-05T00:11:47.140Z,68.79
2014-06-05T00:12:51.829Z,68.77
2014-06-05T00:13:56.504Z,68.93
2014-06-05T00:15:01.194Z,69.54
2014-06-05T00:16:05.869Z,69.39
2014-06-05T00:17:10.558Z,69.65
2014-06-05T00:18:15.544Z,70.38
2014-06-05T00:19:20.218Z,68.73
2014-06-05T00:20:24.923Z,69
2014-06-05T00:21:29.597Z,68.64
2014-06-05T00:22:34.583Z,68.61
2014-06-05T00:23:39.273Z,68.17
2014-06-05T00:24:43.947Z,69.3
2014-06-05T00:25:48.635Z,68.89
2014-06-05T00:26:53.607Z,69.3
2014-06-05T00:27:58.296Z,68.94
2014-06-05T00:29:02.987Z,69.22
2014-06-05T00:30:07.676Z,69.39
2014-06-05T00:31:12.647Z,69.16
2014-06-05T00:32:17.337Z,69.17
2014-06-05T00:33:22.307Z,68.78
2014-06-05T00:34:27.294Z,68.87
2014-06-05T00:35:31.967Z,69.06
2014-06-05T00:36:36.657Z,68.74
2014-06-05T00:37:41.347Z,68.86
2014-06-05T00:38:46.333Z,68.75
2014-06-05T00:39:51.304Z,68.66
2014-06-05T00:40:56.290Z,69.4
2014-06-05T00:42:01.026Z,69.55
2014-06-05T00:43:05.717Z,69.42
2014-06-05T00:44:10.391Z,69.71
2014-06-05T00:45:14.690Z,69.25
2014-06-05T00:46:19.364Z,69.39
2014-06-05T00:47:24.053Z,70.8
2014-06-05T00:48:28.727Z,71.08
2014-06-05T00:49:33.713Z,70.33
2014-06-05T00:50:38.700Z,70.23
2014-06-05T00:51:43.374Z,71.06
2014-06-05T00:52:48.062Z,71.79
2014-06-05T00:53:52.752Z,71.14
2014-06-05T00:54:57.425Z,70.52
2014-06-05T00:56:02.115Z,69.1
2014-06-05T00:57:06.806Z,69.48
2014-06-05T00:58:11.777Z,69.88
2014-06-05T00:59:16.467Z,70.66
2014-06-05T01:00:21.453Z,70.86
2014-06-05T01:01:26.423Z,70.98
2014-06-05T01:02:31.112Z,71.28
2014-06-05T01:03:36.099Z,70.79
2014-06-05T01:04:41.069Z,70.68
2014-06-05T01:05:45.759Z,70.83
2014-06-05T01:06:50.731Z,70.94
2014-06-05T01:07:55.716Z,70.56
2014-06-05T01:09:00.702Z,70.41
2014-06-05T01:10:05.376Z,70.58
2014-06-05T01:11:10.365Z,70.48
2014-06-05T01:12:15.039Z,70.82
2014-06-05T01:13:19.728Z,71.7
2014-06-05T01:14:24.996Z,70.55
2014-06-05T01:15:28.998Z,70.21
2014-06-05T01:16:33.984Z,71.18
2014-06-05T01:17:38.658Z,71.37
2014-06-05T01:18:43.347Z,71.43
2014-06-05T01:19:48.021Z,70.74
2014-06-05T01:20:52.711Z,70.6
2014-06-05T01:21:57.384Z,71.03
2014-06-05T01:23:02.370Z,70.4
2014-06-05T01:24:07.046Z,70.5
2014-06-05T01:25:12.017Z,69.96
2014-06-05T01:26:16.706Z,70.57
2014-06-05T01:27:21.677Z,70.7
2014-06-05T01:28:26.663Z,70.9
2014-06-05T01:29:31.352Z,70.97
2014-06-05T01:30:36.323Z,70.47
2014-06-05T01:31:41.013Z,69.95
2014-06-05T01:32:45.984Z,70.61
2014-06-05T01:33:50.969Z,70.35
2014-06-05T01:34:55.643Z,71.1
2014-06-05T01:36:00.629Z,71.73
2014-06-05T01:37:05.303Z,70.83
2014-06-05T01:38:10.292Z,69.92
2014-06-05T01:39:14.965Z,69.44
2014-06-05T01:40:19.654Z,70.36
2014-06-05T01:41:24.640Z,69.96
2014-06-05T01:42:29.330Z,70.23
2014-06-05T01:43:34.004Z,70.8
2014-06-05T01:44:38.991Z,71.25
2014-06-05T01:45:43.664Z,70.53
2014-06-05T01:46:48.650Z,70.69
2014-06-05T01:47:53.621Z,70.14
2014-06-05T01:48:58.311Z,70.6
2014-06-05T01:50:03.281Z,70.13
2014-06-05T01:51:07.971Z,70.29
2014-06-05T01:52:12.647Z,69.88
2014-06-05T01:53:17.336Z,69.82
2014-06-05T01:54:22.025Z,69.2
2014-06-05T01:55:26.699Z,69.44
2014-06-05T01:56:31.374Z,69.5
2014-06-05T01:57:36.360Z,69.32
2014-06-05T01:58:41.034Z,68.8
2014-06-05T01:59:46.020Z,69.41
2014-06-05T02:00:51.006Z,70.3
2014-06-05T02:01:55.976Z,70
2014-06-05T02:03:00.666Z,69.51
2014-06-05T02:04:05.340Z,69.13
2014-06-05T02:05:10.029Z,69.82
2014-06-05T02:06:14.705Z,69.89
2014-06-05T02:07:19.395Z,69.43
2014-06-05T02:08:24.381Z,69.02
2014-06-05T02:09:29.055Z,68.83
2014-06-05T02:10:33.744Z,69.09
2014-06-05T02:11:38.418Z,69.14
2014-06-05T02:12:43.108Z,69.31
2014-06-05T02:13:47.782Z,68.77
2014-06-05T02:14:52.471Z,69.58
2014-06-05T02:15:57.144Z,69.93
2014-06-05T02:17:02.131Z,70.62
2014-06-05T02:18:06.805Z,70.11
2014-06-05T02:19:11.494Z,70.55
2014-06-05T02:20:16.170Z,70.43
2014-06-05T02:21:20.859Z,70.64
2014-06-05T02:22:25.548Z,70.37
2014-06-05T02:23:30.222Z,70.02
2014-06-05T02:24:35.209Z,69.83
2014-06-05T02:25:40.180Z,70.14
2014-06-05T02:26:45.166Z,70.06
2014-06-05T02:27:49.840Z,70.39
2014-06-05T02:28:54.529Z,70.62
2014-06-05T02:29:59.499Z,70.53
2014-06-05T02:31:04.189Z,70.48
2014-06-05T02:32:09.159Z,70.59
2014-06-05T02:33:14.146Z,70.27
2014-06-05T02:34:18.821Z,70.42
2014-06-05T02:35:23.510Z,70.84
2014-06-05T02:36:28.185Z,70.56
2014-06-05T02:37:32.873Z,70.69
2014-06-05T02:38:38.157Z,70.58
2014-06-05T02:39:43.128Z,70.98
2014-06-05T02:40:47.818Z,70.98
2014-06-05T02:41:52.491Z,71.13
2014-06-05T02:42:57.180Z,71.34
2014-06-05T02:44:01.870Z,71.04
2014-06-05T02:45:06.841Z,70.67
2014-06-05T02:46:11.513Z,71.1
2014-06-05T02:47:16.502Z,70.76
2014-06-05T02:48:21.177Z,70.72
2014-06-05T02:49:26.163Z,69.95
2014-06-05T02:50:30.853Z,70.35
2014-06-05T02:51:35.526Z,70.76
2014-06-05T02:52:40.513Z,70.26
2014-06-05T02:53:45.187Z,70.39
2014-06-05T02:54:49.876Z,70.2
2014-06-05T02:55:54.550Z,70.3
2014-06-05T02:56:59.223Z,70.65
2014-06-05T02:58:03.912Z,70.12
2014-06-05T02:59:08.602Z,69.72
2014-06-05T03:00:13.573Z,69.53
2014-06-05T03:01:18.264Z,69.18
2014-06-05T03:02:22.938Z,69.54
2014-06-05T03:03:27.627Z,69.62
2014-06-05T03:04:32.598Z,69.77
2014-06-05T03:05:37.288Z,69.5
2014-06-05T03:06:41.962Z,69.91
2014-06-05T03:07:46.650Z,70.2
2014-06-05T03:08:51.325Z,70.24
2014-06-05T03:09:56.014Z,70.54
2014-06-05T03:11:00.687Z,70.24
2014-06-05T03:12:05.377Z,69.92
2014-06-05T03:13:10.051Z,70.35
2014-06-05T03:14:14.740Z,70.4
2014-06-05T03:15:19.414Z,70.55
2014-06-05T03:16:24.385Z,70.53
2014-06-05T03:17:29.073Z,70.08
2014-06-05T03:18:33.750Z,70.85
2014-06-05T03:19:38.440Z,70.96
2014-06-05T03:20:43.114Z,70.76
2014-06-05T03:21:48.099Z,70.97
2014-06-05T03:22:52.773Z,71.03
2014-06-05T03:23:57.759Z,71.05
2014-06-05T03:25:02.747Z,70.73
2014-06-05T03:26:08.013Z,70.74
2014-06-05T03:27:13.000Z,71.02
2014-06-05T03:28:17.970Z,70.76
2014-06-05T03:29:22.660Z,70.97
2014-06-05T03:30:27.334Z,71.14
2014-06-05T03:31:32.322Z,70.43
2014-06-05T03:32:37.309Z,69.67
2014-06-05T03:33:42.279Z,70.09
2014-06-05T03:34:46.953Z,70.47
2014-06-05T03:35:52.235Z,70.24
2014-06-05T03:36:56.925Z,70.3
2014-06-05T03:38:01.896Z,70.69
2014-06-05T03:39:06.585Z,70.7
2014-06-05T03:40:11.556Z,70.01
2014-06-05T03:41:16.245Z,70.02
2014-06-05T03:42:20.919Z,69.93
2014-06-05T03:43:25.906Z,69.47
2014-06-05T03:44:31.173Z,69.75
2014-06-05T03:45:35.865Z,70.05
2014-06-05T03:46:40.538Z,70.03
2014-06-05T03:47:45.228Z,70.08
2014-06-05T03:48:49.902Z,70.12
2014-06-05T03:49:54.888Z,69.6
2014-06-05T03:50:59.562Z,69.46
2014-06-05T03:52:04.549Z,69.96
2014-06-05T03:53:09.519Z,70.01
2014-06-05T03:54:14.506Z,69.76
2014-06-05T03:55:19.476Z,70.25
2014-06-05T03:56:24.462Z,70.82
2014-06-05T03:57:29.136Z,70.04
2014-06-05T03:58:33.825Z,69.4
2014-06-05T03:59:38.499Z,69.09
2014-06-05T04:00:43.189Z,68.74
2014-06-05T04:01:48.161Z,69.71
2014-06-05T04:02:52.851Z,70.08
2014-06-05T04:03:57.525Z,70.17
2014-06-05T04:05:02.214Z,70.28
2014-06-05T04:06:06.888Z,70.1
2014-06-05T04:07:11.875Z,69.65
2014-06-05T04:08:16.548Z,68.93
2014-06-05T04:09:21.237Z,69.05
2014-06-05T04:10:25.911Z,68.93
2014-06-05T04:11:30.601Z,68.79
2014-06-05T04:12:35.274Z,68.81
2014-06-05T04:13:39.964Z,68.85
2014-06-05T04:14:44.637Z,68.83
2014-06-05T04:15:48.639Z,68.91
2014-06-05T04:16:53.611Z,69.83
2014-06-05T04:17:58.599Z,69.53
2014-06-05T04:19:03.272Z,69.67
2014-06-05T04:20:07.961Z,69.39
2014-06-05T04:21:12.932Z,68.95
2014-06-05T04:22:17.622Z,69.58
2014-06-05T04:23:22.295Z,69.69
2014-06-05T04:24:27.283Z,69.84
2014-06-05T04:25:31.956Z,70.11
2014-06-05T04:26:36.645Z,69.13
2014-06-05T04:27:41.320Z,69.16
2014-06-05T04:28:46.306Z,69.79
2014-06-05T04:29:50.980Z,68.52
2014-06-05T04:30:55.965Z,68.12
2014-06-05T04:32:00.639Z,69.01
2014-06-05T04:33:05.331Z,69.63
2014-06-05T04:34:10.020Z,69.01
2014-06-05T04:35:14.694Z,68.96
2014-06-05T04:36:19.384Z,69.4
2014-06-05T04:37:24.058Z,68.91
2014-06-05T04:38:29.028Z,68.73
2014-06-05T04:39:33.718Z,69.22
2014-06-05T04:40:38.703Z,69.46
2014-06-05T04:41:43.674Z,69.18
2014-06-05T04:42:48.660Z,69.53
2014-06-05T04:43:53.334Z,69.94
2014-06-05T04:44:58.024Z,69.15
2014-06-05T04:46:02.698Z,69.86
2014-06-05T04:47:07.389Z,69.42
2014-06-05T04:48:12.657Z,68.78
2014-06-05T04:49:17.346Z,67.98
2014-06-05T04:50:22.020Z,67.31
2014-06-05T04:51:26.710Z,67.63
2014-06-05T04:52:31.383Z,66.46
2014-06-05T04:53:36.073Z,65.97
2014-06-05T04:54:40.747Z,65.91
2014-06-05T04:55:45.732Z,64.99
2014-06-05T04:56:50.703Z,65.12
2014-06-05T04:57:55.392Z,65.6
2014-06-05T04:59:00.066Z,65.05
2014-06-05T05:00:05.053Z,64.92
2014-06-05T05:01:09.742Z,64.77
2014-06-05T05:02:14.432Z,64.22
2014-06-05T05:03:19.402Z,63.54
2014-06-05T05:04:24.094Z,63.46
2014-06-05T05:05:28.768Z,63.79
2014-06-05T05:06:33.769Z,63.47
2014-06-05T05:07:38.444Z,63.48
2014-06-05T05:08:43.430Z,63.94
2014-06-05T05:09:48.104Z,64.53
2014-06-05T05:10:52.792Z,64.13
2014-06-05T05:11:57.467Z,64.36
2014-06-05T05:13:02.157Z,64.61
2014-06-05T05:14:07.128Z,64.66
2014-06-05T05:15:11.816Z,64.11
2014-06-05T05:16:17.099Z,64.03
2014-06-05T05:17:22.070Z,64.68
2014-06-05T05:18:26.762Z,64.29
2014-06-05T05:19:31.435Z,65.3
2014-06-05T05:20:36.125Z,64.74
2014-06-05T05:21:40.799Z,65.32
2014-06-05T05:22:45.488Z,65.25
2014-06-05T05:23:50.178Z,65.33
2014-06-05T05:24:55.148Z,64.31
2014-06-05T05:26:00.134Z,63.91
2014-06-05T05:27:04.808Z,64.09
2014-06-05T05:28:09.497Z,63.72
2014-06-05T05:29:14.187Z,64.4
2014-06-05T05:30:19.173Z,64.77
2014-06-05T05:31:24.144Z,65.73
2014-06-05T05:32:29.131Z,66.09
2014-06-05T05:33:34.118Z,65.54
2014-06-05T05:34:39.088Z,65.69
2014-06-05T05:35:44.075Z,64.74
2014-06-05T05:36:48.750Z,64.12
2014-06-05T05:37:53.735Z,63.98
2014-06-05T05:38:58.426Z,64.86
2014-06-05T05:40:03.099Z,63.32
2014-06-05T05:41:08.414Z,63.27
2014-06-05T05:42:13.145Z,63.44
2014-06-05T05:43:17.862Z,62.53
2014-06-05T05:44:22.889Z,63.11
2014-06-05T05:45:27.606Z,62.11
2014-06-05T05:46:32.334Z,62.53
2014-06-05T05:47:37.038Z,62.99
2014-06-05T05:48:41.743Z,62.39
2014-06-05T05:49:46.447Z,63.32
2014-06-05T05:50:51.145Z,63.64
2014-06-05T05:51:55.824Z,63.67
2014-06-05T05:53:00.519Z,62.99
2014-06-05T05:54:05.198Z,63.07
2014-06-05T05:55:09.502Z,63.62
2014-06-05T05:56:14.491Z,64.24
2014-06-05T05:57:19.464Z,63.95
2014-06-05T05:58:24.156Z,64.85
2014-06-05T05:59:28.831Z,64.89
2014-06-05T06:00:34.119Z,65.03
2014-06-05T06:01:38.808Z,63.73
2014-06-05T06:02:43.484Z,64.57
2014-06-05T06:03:48.174Z,64.81
2014-06-05T06:04:52.847Z,64.94
2014-06-05T06:05:57.538Z,64.96
2014-06-05T06:07:02.509Z,63.69
2014-06-05T06:08:07.198Z,62.7
2014-06-05T06:09:11.498Z,63.71
2014-06-05T06:10:16.172Z,61.67
2014-06-05T06:11:21.158Z,61.85
2014-06-05T06:12:25.833Z,62.49
2014-06-05T06:13:30.523Z,62.82
2014-06-05T06:14:35.198Z,64.33
2014-06-05T06:15:40.184Z,63.3
2014-06-05T06:16:44.858Z,62.65
2014-06-05T06:17:49.546Z,62.56
2014-06-05T06:18:54.533Z,62.09
2014-06-05T06:19:59.208Z,63.62
2014-06-05T06:21:04.194Z,63.78
2014-06-05T06:22:09.180Z,62.89
2014-06-05T06:23:13.854Z,62.26
2014-06-05T06:24:19.136Z,63.4
2014-06-05T06:25:23.810Z,62.98
2014-06-05T06:26:28.797Z,63.06
2014-06-05T06:27:33.488Z,62.41
2014-06-05T06:28:38.162Z,60.32
2014-06-05T06:29:42.852Z,58.57
2014-06-05T06:30:47.525Z,55.06
2014-06-05T06:31:52.215Z,46.04
2014-06-05T06:32:57.186Z,40.84
2014-06-05T06:34:01.187Z,39.86
2014-06-05T06:35:05.861Z,45.26
2014-06-05T06:36:10.847Z,48.39
2014-06-05T06:37:15.833Z,50.37
2014-06-05T06:38:20.820Z,51.92
2014-06-05T06:39:25.509Z,52.76
2014-06-05T06:40:30.183Z,53.33
2014-06-05T06:41:35.171Z,54.48
2014-06-05T06:42:39.861Z,55.48
2014-06-05T06:43:44.535Z,56.19
2014-06-05T06:44:49.224Z,55.05
2014-06-05T06:45:53.914Z,55.32
2014-06-05T06:46:58.603Z,55.4
2014-06-05T06:48:03.277Z,56.09
2014-06-05T06:49:07.967Z,57.28
2014-06-05T06:50:12.655Z,56.02
2014-06-05T06:51:17.329Z,55.59
2014-06-05T06:52:22.019Z,54.92
2014-06-05T06:53:26.708Z,55.53
2014-06-05T06:54:31.382Z,54.68
2014-06-05T06:55:36.370Z,55.68
2014-06-05T06:56:41.059Z,55.18
2014-06-05T06:57:45.748Z,55.32
2014-06-05T06:58:50.720Z,55.65
2014-06-05T06:59:55.706Z,55.03
2014-06-05T07:01:00.396Z,55.84
2014-06-05T07:02:05.085Z,56.49
2014-06-05T07:03:09.759Z,57.96
2014-06-05T07:04:14.746Z,57.4
2014-06-05T07:05:19.420Z,55.45
2014-06-05T07:06:24.108Z,54.96
2014-06-05T07:07:28.798Z,55.23
2014-06-05T07:08:33.768Z,55.58
2014-06-05T07:09:38.757Z,56.67
2014-06-05T07:10:43.743Z,55.68
2014-06-05T07:11:48.417Z,54.54
2014-06-05T07:12:53.106Z,55.67
2014-06-05T07:13:58.092Z,56.03
2014-06-05T07:15:02.782Z,57.37
2014-06-05T07:16:07.753Z,56.76
2014-06-05T07:17:12.739Z,59.09
2014-06-05T07:18:17.428Z,56.64
2014-06-05T07:19:22.103Z,56.44
2014-06-05T07:20:26.791Z,56.48
2014-06-05T07:21:31.762Z,54.71
2014-06-05T07:22:36.748Z,55.36
2014-06-05T07:23:41.439Z,53.9
2014-06-05T07:24:46.114Z,54.22
2014-06-05T07:25:51.100Z,54.08
2014-06-05T07:26:55.790Z,54.02
2014-06-05T07:28:00.463Z,54.75
2014-06-05T07:29:05.152Z,54.2
2014-06-05T07:30:09.842Z,55.2
2014-06-05T07:31:14.515Z,54.54
2014-06-05T07:32:19.503Z,54.66
2014-06-05T07:33:24.191Z,54.39
2014-06-05T07:34:28.865Z,56.08
2014-06-05T07:35:33.555Z,56.12
2014-06-05T07:36:38.540Z,54.71
2014-06-05T07:37:43.230Z,55.76
2014-06-05T07:38:48.202Z,55.33
2014-06-05T07:39:53.190Z,55.96
2014-06-05T07:40:57.878Z,55.56
2014-06-05T07:42:02.849Z,55.08
2014-06-05T07:43:07.539Z,53.55
2014-06-05T07:44:12.228Z,53.07
2014-06-05T07:45:16.917Z,53.28
2014-06-05T07:46:21.591Z,52.65
2014-06-05T07:47:26.578Z,54.69
2014-06-05T07:48:31.564Z,54.35
2014-06-05T07:49:36.550Z,53.34
2014-06-05T07:50:41.223Z,53.96
2014-06-05T07:51:45.914Z,54.24
2014-06-05T07:52:50.902Z,54.44
2014-06-05T07:53:55.872Z,54.38
2014-06-05T07:55:00.858Z,53.41
2014-06-05T07:56:05.549Z,54.79
2014-06-05T07:57:10.519Z,54.7
2014-06-05T07:58:15.208Z,53.42
2014-06-05T07:59:19.898Z,53.03
2014-06-05T08:00:24.572Z,54.64
2014-06-05T08:01:29.262Z,54.71
2014-06-05T08:02:33.950Z,55.52
2014-06-05T08:03:37.952Z,54.09
2014-06-05T08:04:42.626Z,55.48
2014-06-05T08:05:47.316Z,55.88
2014-06-05T08:06:52.005Z,55.7
2014-06-05T08:07:56.992Z,54.32
2014-06-05T08:09:01.980Z,53.94
2014-06-05T08:10:06.951Z,53.72
2014-06-05T08:11:11.640Z,51.17
2014-06-05T08:12:16.626Z,51.1
2014-06-05T08:13:21.315Z,52.54
2014-06-05T08:14:25.989Z,51.23
2014-06-05T08:15:30.975Z,49.89
2014-06-05T08:16:35.666Z,49.99
2014-06-05T08:17:40.354Z,49.58
2014-06-05T08:18:45.325Z,48.86
2014-06-05T08:19:50.327Z,50.11
2014-06-05T08:20:55.298Z,49.15
2014-06-05T08:22:00.003Z,46.74
2014-06-05T08:23:04.693Z,49.09
2014-06-05T08:24:09.382Z,49.13
2014-06-05T08:25:14.370Z,49.51
2014-06-05T08:26:19.044Z,49.62
2014-06-05T08:27:23.734Z,50.96
2014-06-05T08:28:28.423Z,48.49
2014-06-05T08:29:33.097Z,49.06
2014-06-05T08:30:37.787Z,50.06
2014-06-05T08:31:42.475Z,48.64
2014-06-05T08:32:47.165Z,49.37
2014-06-05T08:33:51.839Z,48.26
2014-06-05T08:34:56.528Z,47.51
2014-06-05T08:36:01.812Z,47.14
2014-06-05T08:37:06.501Z,46.02
2014-06-05T08:38:11.175Z,43.64
2014-06-05T08:39:16.163Z,44.19
2014-06-05T08:40:20.853Z,44.73
2014-06-05T08:41:25.542Z,46.05
2014-06-05T08:42:30.528Z,45.45
2014-06-05T08:43:35.811Z,45.7
2014-06-05T08:44:40.500Z,45.98
2014-06-05T08:45:45.190Z,46.64
2014-06-05T08:46:49.864Z,47.31
2014-06-05T08:47:54.850Z,47.04
2014-06-05T08:48:59.540Z,47.13
2014-06-05T08:50:04.213Z,46.03
2014-06-05T08:51:08.903Z,45.26
2014-06-05T08:52:13.592Z,45.71
2014-06-05T08:53:18.268Z,44.74
2014-06-05T08:54:23.255Z,45.71
2014-06-05T08:55:28.241Z,45.62
2014-06-05T08:56:32.930Z,45.07
2014-06-05T08:57:37.901Z,44.32
2014-06-05T08:58:42.591Z,45.12
2014-06-05T08:59:47.577Z,44.39
2014-06-05T09:00:52.266Z,42.9
2014-06-05T09:01:56.939Z,43.23
2014-06-05T09:03:01.629Z,42.77
2014-06-05T09:04:06.318Z,43.06
2014-06-05T09:05:11.008Z,45.33
2014-06-05T09:06:15.697Z,44.68
2014-06-05T09:07:20.670Z,44.41
2014-06-05T09:08:25.360Z,45.91
2014-06-05T09:09:30.034Z,45.75
2014-06-05T09:10:35.317Z,44.84
2014-06-05T09:11:40.005Z,46.6
2014-06-05T09:12:44.695Z,46.57
2014-06-05T09:13:49.681Z,45.66
2014-06-05T09:14:54.355Z,46.49
2014-06-05T09:15:59.638Z,47.05
2014-06-05T09:17:04.328Z,46.37
2014-06-05T09:18:09.017Z,46.17
2014-06-05T09:19:13.691Z,45.46
2014-06-05T09:20:18.680Z,44.97
2014-06-05T09:21:23.369Z,45.03
2014-06-05T09:22:28.059Z,42.25
2014-06-05T09:23:32.731Z,41.46
2014-06-05T09:24:37.030Z,40.95
2014-06-05T09:25:41.720Z,40.27
2014-06-05T09:26:46.410Z,39.91
2014-06-05T09:27:51.380Z,40.34
2014-06-05T09:28:56.070Z,41.79
2014-06-05T09:30:01.056Z,42.34
2014-06-05T09:31:05.744Z,42.65
2014-06-05T09:32:10.434Z,42.23
2014-06-05T09:33:15.124Z,42.43
2014-06-05T09:34:19.815Z,44.04
2014-06-05T09:35:24.801Z,40.68
2014-06-05T09:36:29.491Z,40.66
2014-06-05T09:37:34.462Z,40.67
2014-06-05T09:38:39.151Z,42.78
2014-06-05T09:39:44.137Z,41.71
2014-06-05T09:40:49.124Z,41.4
2014-06-05T09:41:53.798Z,43.26
2014-06-05T09:42:58.487Z,40.81
2014-06-05T09:44:03.474Z,40.13
2014-06-05T09:45:08.460Z,42.12
2014-06-05T09:46:13.134Z,40.92
2014-06-05T09:47:18.416Z,42.09
2014-06-05T09:48:23.108Z,43.58
2014-06-05T09:49:27.798Z,42.12
2014-06-05T09:50:32.768Z,40.1
2014-06-05T09:51:37.458Z,40.37
2014-06-05T09:52:42.148Z,41.97
2014-06-05T09:53:47.134Z,41.79
2014-06-05T09:54:52.105Z,39.41
2014-06-05T09:55:56.794Z,42.06
2014-06-05T09:57:01.483Z,41.12
2014-06-05T09:58:05.485Z,39
2014-06-05T09:59:10.174Z,41.54
2014-06-05T10:00:14.864Z,42.33
2014-06-05T10:01:19.553Z,41.74
2014-06-05T10:02:24.243Z,41.77
2014-06-05T10:03:28.932Z,41.66
2014-06-05T10:04:33.903Z,39.82
2014-06-05T10:05:38.595Z,38.94
2014-06-05T10:06:43.299Z,39.33
2014-06-05T10:07:47.973Z,39.69
2014-06-05T10:08:52.662Z,39.09
2014-06-05T10:09:57.649Z,41.47
2014-06-05T10:11:02.635Z,41.32
2014-06-05T10:12:07.621Z,39.35
2014-06-05T10:13:12.608Z,40.38
2014-06-05T10:14:17.297Z,38.15
2014-06-05T10:15:22.267Z,38.41
2014-06-05T10:16:26.957Z,38.89
2014-06-05T10:17:32.146Z,38.77
2014-06-05T10:18:37.432Z,38.79
2014-06-05T10:19:42.419Z,39.43
2014-06-05T10:20:47.405Z,39.04
2014-06-05T10:21:52.390Z,37.54
2014-06-05T10:22:57.080Z,38.64
2014-06-05T10:24:02.052Z,38.34
2014-06-05T10:25:06.741Z,38.82
2014-06-05T10:26:11.726Z,37.78
2014-06-05T10:27:16.416Z,39.33
2014-06-05T10:28:21.105Z,39.09
2014-06-05T10:29:25.795Z,39.54
2014-06-05T10:30:30.781Z,39.81
2014-06-05T10:31:35.455Z,40.21
2014-06-05T10:32:40.146Z,39.99
2014-06-05T10:33:44.836Z,38.51
2014-06-05T10:34:49.822Z,38.97
2014-06-05T10:35:54.511Z,38.54
2014-06-05T10:36:59.498Z,37.75
2014-06-05T10:38:04.187Z,38.54
2014-06-05T10:39:08.876Z,38.95
2014-06-05T10:40:13.863Z,39.71
2014-06-05T10:41:18.552Z,40.93
2014-06-05T10:42:23.523Z,39.3
2014-06-05T10:43:28.213Z,38.15
2014-06-05T10:44:32.902Z,39.14
2014-06-05T10:45:37.576Z,39.69
2014-06-05T10:46:42.564Z,38.92
2014-06-05T10:47:47.253Z,38.74
2014-06-05T10:48:51.942Z,38.95
2014-06-05T10:49:56.929Z,39.61
2014-06-05T10:51:01.618Z,38.56
2014-06-05T10:52:06.308Z,38.61
2014-06-05T10:53:10.997Z,37.76
2014-06-05T10:54:15.686Z,38.45
2014-06-05T10:55:20.391Z,38.2
2014-06-05T10:56:25.080Z,38.43
2014-06-05T10:57:30.067Z,38.19
2014-06-05T10:58:34.757Z,38.66
2014-06-05T10:59:39.449Z,39.27
2014-06-05T11:00:44.137Z,38.69
2014-06-05T11:01:48.827Z,40.47
2014-06-05T11:02:53.516Z,38.68
2014-06-05T11:03:58.503Z,39.17
2014-06-05T11:05:03.489Z,38.26
2014-06-05T11:06:08.178Z,39.26
2014-06-05T11:07:12.868Z,39.72
2014-06-05T11:08:17.557Z,37.95
2014-06-05T11:09:22.247Z,38.31
2014-06-05T11:10:27.218Z,37.69
2014-06-05T11:11:31.907Z,37.73
2014-06-05T11:12:36.597Z,37.52
2014-06-05T11:13:41.287Z,36.75
2014-06-05T11:14:46.571Z,37.66
2014-06-05T11:15:51.260Z,37.08
2014-06-05T11:16:55.934Z,37.63
2014-06-05T11:18:00.623Z,37.64
2014-06-05T11:19:05.610Z,36.23
2014-06-05T11:20:10.299Z,37.69
2014-06-05T11:21:14.988Z,37.34
2014-06-05T11:22:19.678Z,37.01
2014-06-05T11:23:24.664Z,37.15
2014-06-05T11:24:29.337Z,36.19
2014-06-05T11:25:34.027Z,34.53
2014-06-05T11:26:38.716Z,34.52
2014-06-05T11:27:43.705Z,35.84
2014-06-05T11:28:48.676Z,34.25
2014-06-05T11:29:53.662Z,36.06
2014-06-05T11:30:58.351Z,36.07
2014-06-05T11:32:02.650Z,38.03
2014-06-05T11:33:07.340Z,36.64
2014-06-05T11:34:12.326Z,36.29
2014-06-05T11:35:17.016Z,36.49
2014-06-05T11:36:21.689Z,36.15
2014-06-05T11:37:26.676Z,37.32
2014-06-05T11:38:31.365Z,35.92
2014-06-05T11:39:36.054Z,35.19
2014-06-05T11:40:40.743Z,34.21
2014-06-05T11:41:45.435Z,34.82
2014-06-05T11:42:50.124Z,34.31
2014-06-05T11:43:54.798Z,35.01
2014-06-05T11:44:59.488Z,35.01
2014-06-05T11:46:04.474Z,35.36
2014-06-05T11:47:09.163Z,36.26
2014-06-05T11:48:14.150Z,34.87
2014-06-05T11:49:18.840Z,38.91
2014-06-05T11:50:23.528Z,37.15
2014-06-05T11:51:28.219Z,35.11
2014-06-05T11:52:32.907Z,34.14
2014-06-05T11:53:37.581Z,34.45
2014-06-05T11:54:42.568Z,35.33
2014-06-05T11:55:47.259Z,34.46
2014-06-05T11:56:51.948Z,35.2
2014-06-05T11:57:56.622Z,35.96
2014-06-05T11:59:01.312Z,34.51
2014-06-05T12:00:06.297Z,34.31
2014-06-05T12:01:10.988Z,35.46
2014-06-05T12:02:15.677Z,36.33
2014-06-05T12:03:20.663Z,34.33
2014-06-05T12:04:25.353Z,34.88
2014-06-05T12:05:30.323Z,34.45
2014-06-05T12:06:35.310Z,33.75
2014-06-05T12:07:40.295Z,34.39
2014-06-05T12:08:44.985Z,34.89
2014-06-05T12:09:49.973Z,34.18
2014-06-05T12:10:54.647Z,33.22
2014-06-05T12:11:59.634Z,34.02
2014-06-05T12:13:04.620Z,33.63
2014-06-05T12:14:09.309Z,33.51
2014-06-05T12:15:13.999Z,33.49
2014-06-05T12:16:18.688Z,34.89
2014-06-05T12:17:23.658Z,33.82
2014-06-05T12:18:28.942Z,33.37
2014-06-05T12:19:33.632Z,34.15
2014-06-05T12:20:38.618Z,33.85
2014-06-05T12:21:43.308Z,35.47
2014-06-05T12:22:48.293Z,33.94
2014-06-05T12:23:52.985Z,32.68
2014-06-05T12:24:57.971Z,33.72
2014-06-05T12:26:02.957Z,34.64
2014-06-05T12:27:07.646Z,33.91
2014-06-05T12:28:12.336Z,33.7
2014-06-05T12:29:17.026Z,32.86
2014-06-05T12:30:21.714Z,32.54
2014-06-05T12:31:26.404Z,34.36
2014-06-05T12:32:31.391Z,34.93
2014-06-05T12:33:36.081Z,33.81
2014-06-05T12:34:41.066Z,34.56
2014-06-05T12:35:45.740Z,33.27
2014-06-05T12:36:50.432Z,35.58
2014-06-05T12:37:55.121Z,34.07
2014-06-05T12:38:59.811Z,33.31
2014-06-05T12:40:04.797Z,33.97
2014-06-05T12:41:08.799Z,33.37
2014-06-05T12:42:13.785Z,33.28
2014-06-05T12:43:18.475Z,34.25
2014-06-05T12:44:23.446Z,33.38
2014-06-05T12:45:28.165Z,33.78
2014-06-05T12:46:33.153Z,34.89
2014-06-05T12:47:38.123Z,35.22
2014-06-05T12:48:43.109Z,36.43
2014-06-05T12:49:48.126Z,35.4
2014-06-05T12:50:52.818Z,34.78
2014-06-05T12:51:57.507Z,34.89
2014-06-05T12:53:02.197Z,34.44
2014-06-05T12:54:06.871Z,33.97
2014-06-05T12:55:11.560Z,34.85
2014-06-05T12:56:16.250Z,33.85
2014-06-05T12:57:21.236Z,34.85
2014-06-05T12:58:25.925Z,33.77
2014-06-05T12:59:30.614Z,35.15
2014-06-05T13:00:35.304Z,35.77
2014-06-05T13:01:39.978Z,35.25
2014-06-05T13:02:44.667Z,34.87
2014-06-05T13:03:49.357Z,34.39
2014-06-05T13:04:54.047Z,34.5
2014-06-05T13:05:58.737Z,35.07
2014-06-05T13:07:03.427Z,36.39
2014-06-05T13:08:08.117Z,33.96
2014-06-05T13:09:13.103Z,34.83
2014-06-05T13:10:17.791Z,34.71
2014-06-05T13:11:22.778Z,35.49
2014-06-05T13:12:27.765Z,36.45
2014-06-05T13:13:32.455Z,34.46
2014-06-05T13:14:37.346Z,34.07
2014-06-05T13:15:42.036Z,34.05
2014-06-05T13:16:46.725Z,33.95
2014-06-05T13:17:51.696Z,34.59
2014-06-05T13:18:56.388Z,34.94
2014-06-05T13:20:01.374Z,35.84
2014-06-05T13:21:06.063Z,33.26
2014-06-05T13:22:10.752Z,34.74
2014-06-05T13:23:15.738Z,35.2
2014-06-05T13:24:20.412Z,36.8
2014-06-05T13:25:25.102Z,34.21
2014-06-05T13:26:29.791Z,33.62
2014-06-05T13:27:34.481Z,33.44
2014-06-05T13:28:39.171Z,33.05
2014-06-05T13:29:44.141Z,33.15
2014-06-05T13:30:48.830Z,33.33
2014-06-05T13:31:53.520Z,34.52
2014-06-05T13:32:58.227Z,33.74
2014-06-05T13:34:02.917Z,35.74
2014-06-05T13:35:08.199Z,35.81
2014-06-05T13:36:13.186Z,34.17
2014-06-05T13:37:17.875Z,34.6
2014-06-05T13:38:22.862Z,33.79
2014-06-05T13:39:27.535Z,33.17
2014-06-05T13:40:32.240Z,33.3
2014-06-05T13:41:36.930Z,31.75
2014-06-05T13:42:41.916Z,33.41
2014-06-05T13:43:46.605Z,33.45
2014-06-05T13:44:50.607Z,31.94
2014-06-05T13:45:55.296Z,33.62
2014-06-05T13:46:59.972Z,32.68
2014-06-05T13:48:04.662Z,33.66
2014-06-05T13:49:09.352Z,32.9
2014-06-05T13:50:14.041Z,32.68
2014-06-05T13:51:18.731Z,32.98
2014-06-05T13:52:23.419Z,33.14
2014-06-05T13:53:28.109Z,32.66
2014-06-05T13:54:33.095Z,32.16
2014-06-05T13:55:37.769Z,30.9
2014-06-05T13:56:42.459Z,31.18
2014-06-05T13:57:47.148Z,31.8